Satun, Thailand

8:55 AM ICT on July 27, 2016 (GMT +0700)
Hat Yai International | | Change Station

Elev 89 ft 6.93 °N, 100.39 °E | Updated 25 minutes ago

Mostly Cloudy
Mostly Cloudy
81 °F
Feels Like 89 °F
N
4
Wind Variable Wind from South

Today
High -- | Low -- °F
--% Chance of Precip.
Yesterday
High -- | Low -- °F
Precip. -- in
Pressure 29.83 in
Visibility 6.2 miles
Clouds Few 2000 ft
Mostly Cloudy 10000 ft
Heat Index 89 °F
Dew Point 81 °F
Humidity 100%
Rainfall 0.00 in
Snow Depth Not available.
6:13 AM 6:38 PM
Waning Gibbous, 49% visible
METAR VTSS 270130Z 18003KT 9999 FEW020 BKN100 27/27 Q1010 A2983 NOSIG
Pressure 29.83 in
Visibility 6.2 miles
Clouds Few 2000 ft
Mostly Cloudy 10000 ft
Heat Index 89 °F
Dew Point 81 °F
Humidity 100%
Rainfall 0.00 in
Snow Depth Not available.
6:13 AM 6:38 PM
Waning Gibbous, 49% visible
METAR VTSS 270130Z 18003KT 9999 FEW020 BKN100 27/27 Q1010 A2983 NOSIG

10-Day Weather Forecast

No radar image for this location.
×

Almanac

Astronomy

Jul. 27, 2016 Rise Set
Actual Time
Civil Twilight
Nautical Twilight
Astronomical Twilight
Moon
Length of Visible Light
Length of Day
Tomorrow will be .
, % of the Moon is Illuminated

Today's Extremes

Country Highs Country Lows

Community

WunderPhotos

Upload Photos

1,927,772 photos uploaded!

WunderBlog® & News

Nearby

Air Quality

  Air Quality AQ Index Pollutant
Not available.

Snow Depth

Station Depth Elevation

Earthquake Activity

City Distance Mag. Time & Date
Minimum magnitude displayed is 2.5.

Coastal Water Temperatures

Place Temperature

Stations

Nearby Weather Stations

Station Location Temp. Windchill Dew Point Humidity Wind Precip. Elev Updated Type